sensor_id;sensor_type;location;lat;lon;timestamp;P1;durP1;ratioP1;P2;durP2;ratioP2
5762;SDS011;2906;53.282;9.508;2023-07-13T00:00:02;12.93;;;5.40;;
5762;SDS011;2906;53.282;9.508;2023-07-13T00:01:07;6.10;;;5.00;;
5762;SDS011;2906;53.282;9.508;2023-07-13T00:02:09;11.15;;;5.75;;
5762;SDS011;2906;53.282;9.508;2023-07-13T00:03:11;9.23;;;4.95;;
5762;SDS011;2906;53.282;9.508;2023-07-13T00:04:13;10.00;;;4.70;;
5762;SDS011;2906;53.282;9.508;2023-07-13T00:05:14;6.93;;;5.40;;
5762;SDS011;2906;53.282;9.508;2023-07-13T00:06:17;6.07;;;5.13;;
5762;SDS011;2906;53.282;9.508;2023-07-13T00:07:20;6.80;;;5.05;;
5762;SDS011;2906;53.282;9.508;2023-07-13T00:08:23;5.35;;;4.85;;
5762;SDS011;2906;53.282;9.508;2023-07-13T00:09:25;7.43;;;5.30;;
5762;SDS011;2906;53.282;9.508;2023-07-13T00:10:27;8.38;;;4.60;;
5762;SDS011;2906;53.282;9.508;2023-07-13T00:11:28;7.47;;;5.55;;
5762;SDS011;2906;53.282;9.508;2023-07-13T00:12:32;5.97;;;5.03;;
5762;SDS011;2906;53.282;9.508;2023-07-13T00:13:33;5.72;;;5.20;;
5762;SDS011;2906;53.282;9.508;2023-07-13T00:14:38;9.05;;;5.25;;
5762;SDS011;2906;53.282;9.508;2023-07-13T00:15:39;11.65;;;5.40;;
5762;SDS011;2906;53.282;9.508;2023-07-13T00:16:43;7.60;;;5.65;;
5762;SDS011;2906;53.282;9.508;2023-07-13T00:17:44;10.02;;;5.45;;
5762;SDS011;2906;53.282;9.508;2023-07-13T00:18:47;8.30;;;5.63;;
5762;SDS011;2906;53.282;9.508;2023-07-13T00:19:48;8.40;;;5.25;;
5762;SDS011;2906;53.282;9.508;2023-07-13T00:20:51;9.45;;;5.60;;
5762;SDS011;2906;53.282;9.508;2023-07-13T00:21:52;9.20;;;6.05;;
5762;SDS011;2906;53.282;9.508;2023-07-13T00:22:56;9.77;;;5.30;;
5762;SDS011;2906;53.282;9.508;2023-07-13T00:23:57;22.10;;;5.72;;
5762;SDS011;2906;53.282;9.508;2023-07-13T00:25:00;9.30;;;5.88;;
5762;SDS011;2906;53.282;9.508;2023-07-13T00:26:02;9.30;;;5.90;;
5762;SDS011;2906;53.282;9.508;2023-07-13T00:27:04;6.47;;;5.88;;
5762;SDS011;2906;53.282;9.508;2023-07-13T00:28:05;8.43;;;5.82;;
5762;SDS011;2906;53.282;9.508;2023-07-13T00:29:08;9.45;;;6.13;;
5762;SDS011;2906;53.282;9.508;2023-07-13T00:30:09;9.45;;;5.90;;
5762;SDS011;2906;53.282;9.508;2023-07-13T00:31:12;18.45;;;6.30;;
5762;SDS011;2906;53.282;9.508;2023-07-13T00:32:16;13.98;;;5.22;;
5762;SDS011;2906;53.282;9.508;2023-07-13T00:33:17;8.90;;;6.40;;
5762;SDS011;2906;53.282;9.508;2023-07-13T00:34:19;8.70;;;6.45;;
5762;SDS011;2906;53.282;9.508;2023-07-13T00:35:21;10.38;;;7.05;;
5762;SDS011;2906;53.282;9.508;2023-07-13T00:36:24;7.72;;;6.40;;
5762;SDS011;2906;53.282;9.508;2023-07-13T00:37:26;7.57;;;6.30;;
5762;SDS011;2906;53.282;9.508;2023-07-13T00:38:28;10.95;;;6.57;;
5762;SDS011;2906;53.282;9.508;2023-07-13T00:39:30;9.75;;;6.40;;
5762;SDS011;2906;53.282;9.508;2023-07-13T00:40:32;6.05;;;5.47;;
5762;SDS011;2906;53.282;9.508;2023-07-13T00:41:33;9.18;;;6.50;;
5762;SDS011;2906;53.282;9.508;2023-07-13T00:42:37;11.50;;;6.05;;
5762;SDS011;2906;53.282;9.508;2023-07-13T00:43:38;7.80;;;6.30;;
5762;SDS011;2906;53.282;9.508;2023-07-13T00:44:40;7.82;;;6.10;;
5762;SDS011;2906;53.282;9.508;2023-07-13T00:46:58;8.23;;;5.95;;
5762;SDS011;2906;53.282;9.508;2023-07-13T00:48:01;9.90;;;6.80;;
5762;SDS011;2906;53.282;9.508;2023-07-13T00:49:04;6.82;;;6.00;;
5762;SDS011;2906;53.282;9.508;2023-07-13T00:50:07;10.30;;;6.20;;
5762;SDS011;2906;53.282;9.508;2023-07-13T00:51:10;11.82;;;6.53;;
5762;SDS011;2906;53.282;9.508;2023-07-13T00:52:13;7.35;;;5.30;;
5762;SDS011;2906;53.282;9.508;2023-07-13T00:53:15;10.65;;;6.45;;
5762;SDS011;2906;53.282;9.508;2023-07-13T00:54:18;7.47;;;5.50;;
5762;SDS011;2906;53.282;9.508;2023-07-13T00:55:21;8.32;;;5.80;;
5762;SDS011;2906;53.282;9.508;2023-07-13T00:56:23;8.45;;;6.10;;
5762;SDS011;2906;53.282;9.508;2023-07-13T00:57:24;8.32;;;5.90;;
5762;SDS011;2906;53.282;9.508;2023-07-13T00:58:27;11.75;;;6.00;;
5762;SDS011;2906;53.282;9.508;2023-07-13T00:59:29;18.35;;;6.60;;
5762;SDS011;2906;53.282;9.508;2023-07-13T01:00:32;8.43;;;5.80;;
5762;SDS011;2906;53.282;9.508;2023-07-13T01:01:35;8.20;;;6.20;;
5762;SDS011;2906;53.282;9.508;2023-07-13T01:02:37;9.15;;;5.97;;
5762;SDS011;2906;53.282;9.508;2023-07-13T01:03:40;8.77;;;6.70;;
5762;SDS011;2906;53.282;9.508;2023-07-13T01:04:42;11.80;;;6.30;;
5762;SDS011;2906;53.282;9.508;2023-07-13T01:05:44;8.48;;;5.93;;
5762;SDS011;2906;53.282;9.508;2023-07-13T01:06:49;9.63;;;6.80;;
5762;SDS011;2906;53.282;9.508;2023-07-13T01:07:50;13.93;;;6.93;;
5762;SDS011;2906;53.282;9.508;2023-07-13T01:08:54;7.82;;;6.55;;
5762;SDS011;2906;53.282;9.508;2023-07-13T01:09:55;7.07;;;5.68;;
5762;SDS011;2906;53.282;9.508;2023-07-13T01:10:57;10.70;;;5.57;;
5762;SDS011;2906;53.282;9.508;2023-07-13T01:11:59;8.63;;;6.57;;
5762;SDS011;2906;53.282;9.508;2023-07-13T01:13:01;6.25;;;5.50;;
5762;SDS011;2906;53.282;9.508;2023-07-13T01:14:03;12.70;;;6.70;;
5762;SDS011;2906;53.282;9.508;2023-07-13T01:16:23;14.57;;;6.78;;
5762;SDS011;2906;53.282;9.508;2023-07-13T01:17:26;6.45;;;5.75;;
5762;SDS011;2906;53.282;9.508;2023-07-13T01:18:28;11.55;;;7.05;;
5762;SDS011;2906;53.282;9.508;2023-07-13T01:19:39;8.10;;;5.93;;
5762;SDS011;2906;53.282;9.508;2023-07-13T01:20:41;14.13;;;6.57;;
5762;SDS011;2906;53.282;9.508;2023-07-13T01:21:44;7.20;;;6.45;;
5762;SDS011;2906;53.282;9.508;2023-07-13T01:22:51;6.78;;;5.95;;
5762;SDS011;2906;53.282;9.508;2023-07-13T01:23:53;8.20;;;6.00;;
5762;SDS011;2906;53.282;9.508;2023-07-13T01:24:55;9.38;;;6.50;;
5762;SDS011;2906;53.282;9.508;2023-07-13T01:25:57;11.88;;;6.55;;
5762;SDS011;2906;53.282;9.508;2023-07-13T01:27:00;11.60;;;6.47;;
5762;SDS011;2906;53.282;9.508;2023-07-13T01:28:01;9.23;;;6.47;;
5762;SDS011;2906;53.282;9.508;2023-07-13T01:29:03;11.43;;;5.95;;
5762;SDS011;2906;53.282;9.508;2023-07-13T01:30:05;9.00;;;6.90;;
5762;SDS011;2906;53.282;9.508;2023-07-13T01:31:08;17.63;;;8.20;;
5762;SDS011;2906;53.282;9.508;2023-07-13T01:32:11;9.98;;;6.30;;
5762;SDS011;2906;53.282;9.508;2023-07-13T01:33:15;20.10;;;6.28;;
5762;SDS011;2906;53.282;9.508;2023-07-13T01:34:17;9.15;;;6.63;;
5762;SDS011;2906;53.282;9.508;2023-07-13T01:35:19;9.20;;;6.60;;
5762;SDS011;2906;53.282;9.508;2023-07-13T01:36:21;8.65;;;6.00;;
5762;SDS011;2906;53.282;9.508;2023-07-13T01:37:24;10.10;;;6.00;;
5762;SDS011;2906;53.282;9.508;2023-07-13T01:38:27;6.75;;;6.05;;
5762;SDS011;2906;53.282;9.508;2023-07-13T01:39:29;7.65;;;6.40;;
5762;SDS011;2906;53.282;9.508;2023-07-13T01:40:31;18.13;;;6.85;;
5762;SDS011;2906;53.282;9.508;2023-07-13T01:41:33;10.18;;;6.80;;
5762;SDS011;2906;53.282;9.508;2023-07-13T01:42:36;15.73;;;7.00;;
5762;SDS011;2906;53.282;9.508;2023-07-13T01:43:37;8.25;;;6.07;;
5762;SDS011;2906;53.282;9.508;2023-07-13T01:44:40;8.50;;;6.70;;
5762;SDS011;2906;53.282;9.508;2023-07-13T01:45:42;9.43;;;6.18;;
5762;SDS011;2906;53.282;9.508;2023-07-13T01:46:44;13.20;;;6.07;;
5762;SDS011;2906;53.282;9.508;2023-07-13T01:47:46;8.02;;;5.88;;
5762;SDS011;2906;53.282;9.508;2023-07-13T01:48:48;11.48;;;7.20;;
5762;SDS011;2906;53.282;9.508;2023-07-13T01:49:49;12.50;;;6.50;;
5762;SDS011;2906;53.282;9.508;2023-07-13T01:50:52;6.43;;;5.60;;
5762;SDS011;2906;53.282;9.508;2023-07-13T01:51:53;10.35;;;6.40;;
5762;SDS011;2906;53.282;9.508;2023-07-13T01:52:56;9.90;;;6.35;;
5762;SDS011;2906;53.282;9.508;2023-07-13T01:53:58;7.13;;;5.53;;
5762;SDS011;2906;53.282;9.508;2023-07-13T01:55:00;15.90;;;6.20;;
5762;SDS011;2906;53.282;9.508;2023-07-13T01:56:02;7.03;;;5.95;;
5762;SDS011;2906;53.282;9.508;2023-07-13T01:57:04;7.70;;;6.45;;
5762;SDS011;2906;53.282;9.508;2023-07-13T01:58:06;7.85;;;5.97;;
5762;SDS011;2906;53.282;9.508;2023-07-13T01:59:08;9.60;;;5.90;;
5762;SDS011;2906;53.282;9.508;2023-07-13T02:00:10;8.55;;;6.25;;
5762;SDS011;2906;53.282;9.508;2023-07-13T02:01:13;9.30;;;6.30;;
5762;SDS011;2906;53.282;9.508;2023-07-13T02:02:14;9.38;;;6.70;;
5762;SDS011;2906;53.282;9.508;2023-07-13T02:03:16;9.90;;;6.65;;
5762;SDS011;2906;53.282;9.508;2023-07-13T02:04:18;9.57;;;5.78;;
5762;SDS011;2906;53.282;9.508;2023-07-13T02:05:20;14.45;;;5.93;;
5762;SDS011;2906;53.282;9.508;2023-07-13T02:06:22;11.10;;;6.57;;
5762;SDS011;2906;53.282;9.508;2023-07-13T02:07:24;16.90;;;6.75;;
5762;SDS011;2906;53.282;9.508;2023-07-13T02:08:26;11.98;;;5.85;;
5762;SDS011;2906;53.282;9.508;2023-07-13T02:09:29;11.68;;;6.78;;
5762;SDS011;2906;53.282;9.508;2023-07-13T02:10:31;8.35;;;6.57;;
5762;SDS011;2906;53.282;9.508;2023-07-13T02:11:34;9.02;;;6.18;;
5762;SDS011;2906;53.282;9.508;2023-07-13T02:12:35;13.95;;;6.45;;
5762;SDS011;2906;53.282;9.508;2023-07-13T02:13:37;12.20;;;6.20;;
5762;SDS011;2906;53.282;9.508;2023-07-13T02:14:39;9.05;;;6.32;;
5762;SDS011;2906;53.282;9.508;2023-07-13T02:15:40;12.82;;;6.20;;
5762;SDS011;2906;53.282;9.508;2023-07-13T02:16:42;10.18;;;5.97;;
5762;SDS011;2906;53.282;9.508;2023-07-13T02:17:44;12.65;;;5.93;;
5762;SDS011;2906;53.282;9.508;2023-07-13T02:18:46;11.00;;;6.57;;
5762;SDS011;2906;53.282;9.508;2023-07-13T02:19:48;11.40;;;6.93;;
5762;SDS011;2906;53.282;9.508;2023-07-13T02:20:50;11.35;;;6.28;;
5762;SDS011;2906;53.282;9.508;2023-07-13T02:21:51;11.00;;;6.65;;
5762;SDS011;2906;53.282;9.508;2023-07-13T02:22:54;8.80;;;5.57;;
5762;SDS011;2906;53.282;9.508;2023-07-13T02:23:56;13.85;;;6.47;;
5762;SDS011;2906;53.282;9.508;2023-07-13T02:25:00;15.93;;;6.70;;
5762;SDS011;2906;53.282;9.508;2023-07-13T02:26:04;7.57;;;5.95;;
5762;SDS011;2906;53.282;9.508;2023-07-13T02:27:06;11.90;;;7.00;;
5762;SDS011;2906;53.282;9.508;2023-07-13T02:28:08;11.52;;;6.82;;
5762;SDS011;2906;53.282;9.508;2023-07-13T02:29:10;10.88;;;6.07;;
5762;SDS011;2906;53.282;9.508;2023-07-13T02:30:12;10.18;;;6.70;;
5762;SDS011;2906;53.282;9.508;2023-07-13T02:31:15;12.40;;;6.57;;
5762;SDS011;2906;53.282;9.508;2023-07-13T02:32:16;10.38;;;5.95;;
5762;SDS011;2906;53.282;9.508;2023-07-13T02:33:18;9.95;;;5.93;;
5762;SDS011;2906;53.282;9.508;2023-07-13T02:34:20;10.48;;;5.75;;
5762;SDS011;2906;53.282;9.508;2023-07-13T02:35:22;11.90;;;6.80;;
5762;SDS011;2906;53.282;9.508;2023-07-13T02:36:24;9.30;;;6.72;;
5762;SDS011;2906;53.282;9.508;2023-07-13T02:37:26;7.38;;;6.35;;
5762;SDS011;2906;53.282;9.508;2023-07-13T02:38:27;12.02;;;6.18;;
5762;SDS011;2906;53.282;9.508;2023-07-13T02:39:30;14.70;;;6.55;;
5762;SDS011;2906;53.282;9.508;2023-07-13T02:40:33;15.90;;;6.38;;
5762;SDS011;2906;53.282;9.508;2023-07-13T02:41:35;8.75;;;7.10;;
5762;SDS011;2906;53.282;9.508;2023-07-13T02:42:37;14.52;;;5.47;;
5762;SDS011;2906;53.282;9.508;2023-07-13T02:43:39;9.20;;;5.95;;
5762;SDS011;2906;53.282;9.508;2023-07-13T02:44:41;12.43;;;6.82;;
5762;SDS011;2906;53.282;9.508;2023-07-13T02:45:43;11.90;;;6.22;;
5762;SDS011;2906;53.282;9.508;2023-07-13T02:46:46;10.52;;;6.15;;
5762;SDS011;2906;53.282;9.508;2023-07-13T02:47:47;10.13;;;5.65;;
5762;SDS011;2906;53.282;9.508;2023-07-13T02:48:50;10.65;;;5.95;;
5762;SDS011;2906;53.282;9.508;2023-07-13T02:49:53;10.88;;;6.30;;
5762;SDS011;2906;53.282;9.508;2023-07-13T02:50:55;19.00;;;6.65;;
5762;SDS011;2906;53.282;9.508;2023-07-13T02:51:57;14.98;;;6.65;;
5762;SDS011;2906;53.282;9.508;2023-07-13T02:52:59;8.13;;;6.00;;
5762;SDS011;2906;53.282;9.508;2023-07-13T02:54:03;21.20;;;6.28;;
5762;SDS011;2906;53.282;9.508;2023-07-13T02:55:10;9.50;;;6.03;;
5762;SDS011;2906;53.282;9.508;2023-07-13T02:56:11;10.90;;;6.03;;
5762;SDS011;2906;53.282;9.508;2023-07-13T02:57:14;11.55;;;6.03;;
5762;SDS011;2906;53.282;9.508;2023-07-13T02:58:15;16.45;;;6.65;;
5762;SDS011;2906;53.282;9.508;2023-07-13T02:59:17;16.48;;;6.20;;
5762;SDS011;2906;53.282;9.508;2023-07-13T03:00:19;11.93;;;6.97;;
5762;SDS011;2906;53.282;9.508;2023-07-13T03:01:20;9.45;;;5.88;;
5762;SDS011;2906;53.282;9.508;2023-07-13T03:02:23;11.07;;;6.82;;
5762;SDS011;2906;53.282;9.508;2023-07-13T03:03:28;11.23;;;7.28;;
5762;SDS011;2906;53.282;9.508;2023-07-13T03:04:30;11.18;;;6.93;;
5762;SDS011;2906;53.282;9.508;2023-07-13T03:05:31;12.68;;;6.32;;
5762;SDS011;2906;53.282;9.508;2023-07-13T03:06:34;10.68;;;6.80;;
5762;SDS011;2906;53.282;9.508;2023-07-13T03:07:35;12.30;;;6.43;;
5762;SDS011;2906;53.282;9.508;2023-07-13T03:08:38;11.00;;;6.85;;
5762;SDS011;2906;53.282;9.508;2023-07-13T03:09:39;13.93;;;6.78;;
5762;SDS011;2906;53.282;9.508;2023-07-13T03:10:43;14.70;;;6.68;;
5762;SDS011;2906;53.282;9.508;2023-07-13T03:11:44;9.30;;;6.60;;
5762;SDS011;2906;53.282;9.508;2023-07-13T03:12:47;8.18;;;6.60;;
5762;SDS011;2906;53.282;9.508;2023-07-13T03:13:48;11.88;;;6.75;;
5762;SDS011;2906;53.282;9.508;2023-07-13T03:14:49;12.43;;;6.18;;
5762;SDS011;2906;53.282;9.508;2023-07-13T03:15:52;14.38;;;6.75;;
5762;SDS011;2906;53.282;9.508;2023-07-13T03:16:53;17.50;;;6.63;;
5762;SDS011;2906;53.282;9.508;2023-07-13T03:17:55;14.98;;;7.10;;
5762;SDS011;2906;53.282;9.508;2023-07-13T03:18:57;20.05;;;7.20;;
5762;SDS011;2906;53.282;9.508;2023-07-13T03:19:59;11.63;;;6.57;;
5762;SDS011;2906;53.282;9.508;2023-07-13T03:21:00;12.93;;;6.93;;
5762;SDS011;2906;53.282;9.508;2023-07-13T03:22:03;12.25;;;6.60;;
5762;SDS011;2906;53.282;9.508;2023-07-13T03:23:04;12.13;;;7.35;;
5762;SDS011;2906;53.282;9.508;2023-07-13T03:24:06;10.88;;;7.45;;
5762;SDS011;2906;53.282;9.508;2023-07-13T03:25:08;10.00;;;6.60;;
5762;SDS011;2906;53.282;9.508;2023-07-13T03:26:13;12.68;;;7.40;;
5762;SDS011;2906;53.282;9.508;2023-07-13T03:27:15;12.50;;;7.38;;
5762;SDS011;2906;53.282;9.508;2023-07-13T03:28:17;18.50;;;7.13;;
5762;SDS011;2906;53.282;9.508;2023-07-13T03:29:19;11.85;;;7.65;;
5762;SDS011;2906;53.282;9.508;2023-07-13T03:30:21;19.25;;;7.70;;
5762;SDS011;2906;53.282;9.508;2023-07-13T03:31:24;14.98;;;7.60;;
5762;SDS011;2906;53.282;9.508;2023-07-13T03:32:27;19.67;;;6.70;;
5762;SDS011;2906;53.282;9.508;2023-07-13T03:33:29;11.20;;;7.22;;
5762;SDS011;2906;53.282;9.508;2023-07-13T03:34:31;10.88;;;7.10;;
5762;SDS011;2906;53.282;9.508;2023-07-13T03:35:33;9.52;;;7.72;;
5762;SDS011;2906;53.282;9.508;2023-07-13T03:36:34;17.83;;;7.20;;
5762;SDS011;2906;53.282;9.508;2023-07-13T03:37:37;10.85;;;7.30;;
5762;SDS011;2906;53.282;9.508;2023-07-13T03:38:42;20.25;;;7.68;;
5762;SDS011;2906;53.282;9.508;2023-07-13T03:39:44;11.93;;;8.07;;
5762;SDS011;2906;53.282;9.508;2023-07-13T03:40:46;15.25;;;7.25;;
5762;SDS011;2906;53.282;9.508;2023-07-13T03:41:50;23.05;;;8.85;;
5762;SDS011;2906;53.282;9.508;2023-07-13T03:42:51;11.23;;;7.75;;
5762;SDS011;2906;53.282;9.508;2023-07-13T03:43:54;11.90;;;8.10;;
5762;SDS011;2906;53.282;9.508;2023-07-13T03:44:55;13.82;;;7.20;;
5762;SDS011;2906;53.282;9.508;2023-07-13T03:45:57;13.60;;;8.00;;
5762;SDS011;2906;53.282;9.508;2023-07-13T03:46:59;11.70;;;8.60;;
5762;SDS011;2906;53.282;9.508;2023-07-13T03:48:01;16.25;;;7.85;;
5762;SDS011;2906;53.282;9.508;2023-07-13T03:49:03;16.00;;;8.23;;
5762;SDS011;2906;53.282;9.508;2023-07-13T03:50:06;17.58;;;7.80;;
5762;SDS011;2906;53.282;9.508;2023-07-13T03:51:07;21.30;;;7.57;;
5762;SDS011;2906;53.282;9.508;2023-07-13T03:52:10;15.88;;;8.93;;
5762;SDS011;2906;53.282;9.508;2023-07-13T03:53:11;11.60;;;8.00;;
5762;SDS011;2906;53.282;9.508;2023-07-13T03:54:13;16.63;;;8.32;;
5762;SDS011;2906;53.282;9.508;2023-07-13T03:55:15;11.27;;;7.63;;
5762;SDS011;2906;53.282;9.508;2023-07-13T03:56:18;14.80;;;8.05;;
5762;SDS011;2906;53.282;9.508;2023-07-13T03:57:21;14.93;;;7.70;;
5762;SDS011;2906;53.282;9.508;2023-07-13T03:58:24;12.10;;;8.15;;
5762;SDS011;2906;53.282;9.508;2023-07-13T03:59:26;16.95;;;8.10;;
5762;SDS011;2906;53.282;9.508;2023-07-13T04:00:28;13.32;;;8.68;;
5762;SDS011;2906;53.282;9.508;2023-07-13T04:01:30;24.27;;;8.68;;
5762;SDS011;2906;53.282;9.508;2023-07-13T04:02:32;15.25;;;8.07;;
5762;SDS011;2906;53.282;9.508;2023-07-13T04:03:33;10.75;;;7.85;;
5762;SDS011;2906;53.282;9.508;2023-07-13T04:04:36;18.83;;;8.55;;
5762;SDS011;2906;53.282;9.508;2023-07-13T04:05:40;11.73;;;7.32;;
5762;SDS011;2906;53.282;9.508;2023-07-13T04:06:42;20.30;;;8.98;;
5762;SDS011;2906;53.282;9.508;2023-07-13T04:07:43;22.48;;;8.40;;
5762;SDS011;2906;53.282;9.508;2023-07-13T04:08:45;14.32;;;8.32;;
5762;SDS011;2906;53.282;9.508;2023-07-13T04:09:47;10.27;;;7.72;;
5762;SDS011;2906;53.282;9.508;2023-07-13T04:10:48;13.68;;;8.73;;
5762;SDS011;2906;53.282;9.508;2023-07-13T04:11:51;15.13;;;8.10;;
5762;SDS011;2906;53.282;9.508;2023-07-13T04:12:53;13.70;;;7.97;;
5762;SDS011;2906;53.282;9.508;2023-07-13T04:13:56;15.20;;;9.02;;
5762;SDS011;2906;53.282;9.508;2023-07-13T04:14:57;18.45;;;8.55;;
5762;SDS011;2906;53.282;9.508;2023-07-13T04:15:59;20.02;;;8.65;;
5762;SDS011;2906;53.282;9.508;2023-07-13T04:17:01;11.65;;;8.00;;
5762;SDS011;2906;53.282;9.508;2023-07-13T04:18:03;17.98;;;9.40;;
5762;SDS011;2906;53.282;9.508;2023-07-13T04:19:04;15.43;;;8.23;;
5762;SDS011;2906;53.282;9.508;2023-07-13T04:20:07;12.15;;;8.00;;
5762;SDS011;2906;53.282;9.508;2023-07-13T04:21:08;14.90;;;8.93;;
5762;SDS011;2906;53.282;9.508;2023-07-13T04:22:10;22.55;;;8.50;;
5762;SDS011;2906;53.282;9.508;2023-07-13T04:23:12;18.67;;;9.02;;
5762;SDS011;2906;53.282;9.508;2023-07-13T04:24:14;29.63;;;8.60;;
5762;SDS011;2906;53.282;9.508;2023-07-13T04:25:15;19.10;;;8.30;;
5762;SDS011;2906;53.282;9.508;2023-07-13T04:26:18;12.15;;;7.80;;
5762;SDS011;2906;53.282;9.508;2023-07-13T04:27:21;10.43;;;8.05;;
5762;SDS011;2906;53.282;9.508;2023-07-13T04:28:25;11.85;;;7.55;;
5762;SDS011;2906;53.282;9.508;2023-07-13T04:29:26;15.93;;;9.00;;
5762;SDS011;2906;53.282;9.508;2023-07-13T04:30:30;18.05;;;9.20;;
5762;SDS011;2906;53.282;9.508;2023-07-13T04:31:31;27.58;;;8.43;;
5762;SDS011;2906;53.282;9.508;2023-07-13T04:32:34;15.70;;;7.22;;
5762;SDS011;2906;53.282;9.508;2023-07-13T04:33:35;15.60;;;7.57;;
5762;SDS011;2906;53.282;9.508;2023-07-13T04:34:36;11.75;;;7.78;;
5762;SDS011;2906;53.282;9.508;2023-07-13T04:35:39;15.40;;;7.45;;
5762;SDS011;2906;53.282;9.508;2023-07-13T04:36:40;10.82;;;7.30;;
5762;SDS011;2906;53.282;9.508;2023-07-13T04:37:43;16.15;;;6.93;;
5762;SDS011;2906;53.282;9.508;2023-07-13T04:38:44;19.77;;;6.75;;
5762;SDS011;2906;53.282;9.508;2023-07-13T04:39:47;17.40;;;7.32;;
5762;SDS011;2906;53.282;9.508;2023-07-13T04:40:48;33.35;;;7.93;;
5762;SDS011;2906;53.282;9.508;2023-07-13T04:41:51;11.68;;;6.15;;
5762;SDS011;2906;53.282;9.508;2023-07-13T04:42:52;14.30;;;6.43;;
5762;SDS011;2906;53.282;9.508;2023-07-13T04:43:56;24.90;;;7.15;;
5762;SDS011;2906;53.282;9.508;2023-07-13T04:44:57;20.17;;;7.50;;
5762;SDS011;2906;53.282;9.508;2023-07-13T04:46:02;19.00;;;6.57;;
5762;SDS011;2906;53.282;9.508;2023-07-13T04:47:04;15.63;;;6.20;;
5762;SDS011;2906;53.282;9.508;2023-07-13T04:48:06;29.40;;;6.40;;
5762;SDS011;2906;53.282;9.508;2023-07-13T04:49:08;18.63;;;7.15;;
5762;SDS011;2906;53.282;9.508;2023-07-13T04:50:12;14.02;;;7.00;;
5762;SDS011;2906;53.282;9.508;2023-07-13T04:51:15;20.20;;;6.40;;
5762;SDS011;2906;53.282;9.508;2023-07-13T04:52:16;20.80;;;6.30;;
5762;SDS011;2906;53.282;9.508;2023-07-13T04:53:19;11.63;;;6.05;;
5762;SDS011;2906;53.282;9.508;2023-07-13T04:54:20;22.90;;;6.50;;
5762;SDS011;2906;53.282;9.508;2023-07-13T04:55:22;12.10;;;5.38;;
5762;SDS011;2906;53.282;9.508;2023-07-13T04:56:24;13.13;;;6.20;;
5762;SDS011;2906;53.282;9.508;2023-07-13T04:57:26;14.65;;;6.03;;
5762;SDS011;2906;53.282;9.508;2023-07-13T04:58:28;12.60;;;5.57;;
5762;SDS011;2906;53.282;9.508;2023-07-13T04:59:31;22.33;;;5.75;;
5762;SDS011;2906;53.282;9.508;2023-07-13T05:00:33;20.92;;;5.72;;
5762;SDS011;2906;53.282;9.508;2023-07-13T05:01:35;34.05;;;6.15;;
5762;SDS011;2906;53.282;9.508;2023-07-13T05:02:37;10.07;;;5.28;;
5762;SDS011;2906;53.282;9.508;2023-07-13T05:03:38;26.83;;;7.78;;
5762;SDS011;2906;53.282;9.508;2023-07-13T05:04:41;15.40;;;5.50;;
5762;SDS011;2906;53.282;9.508;2023-07-13T05:05:42;28.10;;;6.20;;
5762;SDS011;2906;53.282;9.508;2023-07-13T05:06:44;22.85;;;6.18;;
5762;SDS011;2906;53.282;9.508;2023-07-13T05:07:46;9.85;;;5.40;;
5762;SDS011;2906;53.282;9.508;2023-07-13T05:08:48;22.73;;;6.57;;
5762;SDS011;2906;53.282;9.508;2023-07-13T05:09:49;11.05;;;5.22;;
5762;SDS011;2906;53.282;9.508;2023-07-13T05:10:52;12.80;;;6.10;;
5762;SDS011;2906;53.282;9.508;2023-07-13T05:11:54;20.95;;;6.13;;
5762;SDS011;2906;53.282;9.508;2023-07-13T05:12:56;18.35;;;5.05;;
5762;SDS011;2906;53.282;9.508;2023-07-13T05:13:57;14.45;;;5.00;;
5762;SDS011;2906;53.282;9.508;2023-07-13T05:15:03;13.27;;;6.63;;
5762;SDS011;2906;53.282;9.508;2023-07-13T05:16:05;19.55;;;5.55;;
5762;SDS011;2906;53.282;9.508;2023-07-13T05:17:08;14.95;;;5.90;;
5762;SDS011;2906;53.282;9.508;2023-07-13T05:18:10;21.48;;;5.43;;
5762;SDS011;2906;53.282;9.508;2023-07-13T05:19:12;18.17;;;4.95;;
5762;SDS011;2906;53.282;9.508;2023-07-13T05:20:14;15.35;;;5.63;;
5762;SDS011;2906;53.282;9.508;2023-07-13T05:21:16;21.58;;;5.03;;
5762;SDS011;2906;53.282;9.508;2023-07-13T05:22:18;13.85;;;4.72;;
5762;SDS011;2906;53.282;9.508;2023-07-13T05:23:20;22.83;;;6.18;;
5762;SDS011;2906;53.282;9.508;2023-07-13T05:24:21;14.43;;;4.72;;
5762;SDS011;2906;53.282;9.508;2023-07-13T05:25:23;18.80;;;5.68;;
5762;SDS011;2906;53.282;9.508;2023-07-13T05:26:25;17.20;;;4.47;;
5762;SDS011;2906;53.282;9.508;2023-07-13T05:27:27;13.98;;;4.90;;
5762;SDS011;2906;53.282;9.508;2023-07-13T05:28:30;13.10;;;5.50;;
5762;SDS011;2906;53.282;9.508;2023-07-13T05:29:32;21.38;;;4.85;;
5762;SDS011;2906;53.282;9.508;2023-07-13T05:30:35;11.93;;;4.90;;
5762;SDS011;2906;53.282;9.508;2023-07-13T05:31:38;15.05;;;4.95;;
5762;SDS011;2906;53.282;9.508;2023-07-13T05:32:39;13.57;;;4.88;;
5762;SDS011;2906;53.282;9.508;2023-07-13T05:33:46;23.20;;;4.80;;
5762;SDS011;2906;53.282;9.508;2023-07-13T05:34:47;20.65;;;4.80;;
5762;SDS011;2906;53.282;9.508;2023-07-13T05:35:49;18.83;;;5.05;;
5762;SDS011;2906;53.282;9.508;2023-07-13T05:36:51;16.50;;;4.22;;
5762;SDS011;2906;53.282;9.508;2023-07-13T05:37:54;21.00;;;5.28;;
5762;SDS011;2906;53.282;9.508;2023-07-13T05:38:55;24.65;;;5.68;;
5762;SDS011;2906;53.282;9.508;2023-07-13T05:39:58;20.63;;;5.68;;
5762;SDS011;2906;53.282;9.508;2023-07-13T05:41:00;12.23;;;4.10;;
5762;SDS011;2906;53.282;9.508;2023-07-13T05:42:02;28.42;;;4.80;;
5762;SDS011;2906;53.282;9.508;2023-07-13T05:43:04;13.77;;;4.60;;
5762;SDS011;2906;53.282;9.508;2023-07-13T05:44:06;21.42;;;5.10;;
5762;SDS011;2906;53.282;9.508;2023-07-13T05:45:08;14.85;;;4.80;;
5762;SDS011;2906;53.282;9.508;2023-07-13T05:46:12;21.77;;;5.57;;
5762;SDS011;2906;53.282;9.508;2023-07-13T05:47:13;10.75;;;4.72;;
5762;SDS011;2906;53.282;9.508;2023-07-13T05:48:16;16.90;;;4.55;;
5762;SDS011;2906;53.282;9.508;2023-07-13T05:49:17;16.52;;;4.55;;
5762;SDS011;2906;53.282;9.508;2023-07-13T05:50:19;25.20;;;4.53;;
5762;SDS011;2906;53.282;9.508;2023-07-13T05:51:21;17.35;;;4.20;;
5762;SDS011;2906;53.282;9.508;2023-07-13T05:52:23;17.85;;;4.00;;
5762;SDS011;2906;53.282;9.508;2023-07-13T05:53:24;19.90;;;4.80;;
5762;SDS011;2906;53.282;9.508;2023-07-13T05:54:27;17.85;;;5.10;;
5762;SDS011;2906;53.282;9.508;2023-07-13T05:55:28;20.77;;;4.00;;
5762;SDS011;2906;53.282;9.508;2023-07-13T05:56:31;9.45;;;4.00;;
5762;SDS011;2906;53.282;9.508;2023-07-13T05:57:32;14.52;;;3.80;;
5762;SDS011;2906;53.282;9.508;2023-07-13T05:58:34;13.75;;;4.25;;
5762;SDS011;2906;53.282;9.508;2023-07-13T05:59:36;21.17;;;4.22;;
5762;SDS011;2906;53.282;9.508;2023-07-13T06:00:38;12.68;;;3.75;;
5762;SDS011;2906;53.282;9.508;2023-07-13T06:01:42;10.65;;;3.50;;
5762;SDS011;2906;53.282;9.508;2023-07-13T06:02:44;19.10;;;4.13;;
5762;SDS011;2906;53.282;9.508;2023-07-13T06:03:46;12.23;;;3.92;;
5762;SDS011;2906;53.282;9.508;2023-07-13T06:04:48;11.70;;;4.68;;
5762;SDS011;2906;53.282;9.508;2023-07-13T06:05:49;15.82;;;4.88;;
5762;SDS011;2906;53.282;9.508;2023-07-13T06:06:52;11.30;;;3.65;;
5762;SDS011;2906;53.282;9.508;2023-07-13T06:07:55;8.75;;;3.65;;
5762;SDS011;2906;53.282;9.508;2023-07-13T06:08:56;16.80;;;4.00;;
5762;SDS011;2906;53.282;9.508;2023-07-13T06:09:58;8.27;;;3.60;;
5762;SDS011;2906;53.282;9.508;2023-07-13T06:11:02;14.52;;;3.53;;
5762;SDS011;2906;53.282;9.508;2023-07-13T06:12:04;10.70;;;3.38;;
5762;SDS011;2906;53.282;9.508;2023-07-13T06:13:06;14.57;;;3.83;;
5762;SDS011;2906;53.282;9.508;2023-07-13T06:14:09;17.02;;;4.07;;
5762;SDS011;2906;53.282;9.508;2023-07-13T06:15:11;9.00;;;3.83;;
5762;SDS011;2906;53.282;9.508;2023-07-13T06:16:13;25.15;;;4.20;;
5762;SDS011;2906;53.282;9.508;2023-07-13T06:17:17;13.50;;;3.70;;
5762;SDS011;2906;53.282;9.508;2023-07-13T06:18:20;23.88;;;4.25;;
5762;SDS011;2906;53.282;9.508;2023-07-13T06:19:21;25.92;;;6.38;;
5762;SDS011;2906;53.282;9.508;2023-07-13T06:20:23;10.75;;;3.42;;
5762;SDS011;2906;53.282;9.508;2023-07-13T06:21:25;12.40;;;3.90;;
5762;SDS011;2906;53.282;9.508;2023-07-13T06:22:27;12.65;;;3.00;;
5762;SDS011;2906;53.282;9.508;2023-07-13T06:23:28;12.20;;;3.42;;
5762;SDS011;2906;53.282;9.508;2023-07-13T06:24:31;18.55;;;3.45;;